createdAt,value
2022-09-17T00:01:25.277Z,62.66
2022-09-17T00:03:54.039Z,63.21
2022-09-17T00:06:22.625Z,64.17
2022-09-17T00:08:50.524Z,63.69
2022-09-17T00:11:29.977Z,63.17
2022-09-17T00:13:59.981Z,63.17
2022-09-17T00:16:43.003Z,62.88
2022-09-17T00:19:16.496Z,62.92
2022-09-17T00:21:43.635Z,62.98
2022-09-17T00:24:12.329Z,63.07
2022-09-17T00:26:39.382Z,63.19
2022-09-17T00:29:06.968Z,63.62
2022-09-17T00:31:35.084Z,64.50
2022-09-17T00:34:03.913Z,64.23
2022-09-17T00:36:32.034Z,63.72
2022-09-17T00:39:00.642Z,63.50
2022-09-17T00:41:32.164Z,63.24
2022-09-17T00:44:02.192Z,63.24
2022-09-17T00:46:38.205Z,63.08
2022-09-17T00:49:11.694Z,63.06
2022-09-17T00:51:46.187Z,63.01
2022-09-17T00:54:13.617Z,62.97
2022-09-17T00:56:43.767Z,62.67
2022-09-17T00:59:11.190Z,62.69
2022-09-17T01:01:39.236Z,62.57
2022-09-17T01:04:06.453Z,62.68
2022-09-17T01:06:47.320Z,62.44
2022-09-17T01:09:39.981Z,62.52
2022-09-17T01:12:27.301Z,62.66
2022-09-17T01:15:32.110Z,62.64
2022-09-17T01:18:44.254Z,62.86
2022-09-17T01:21:41.821Z,62.95
2022-09-17T01:24:28.294Z,62.88
2022-09-17T01:27:29.936Z,63.02
2022-09-17T01:30:25.967Z,62.92
2022-09-17T01:33:01.405Z,62.88
2022-09-17T01:35:46.587Z,62.90
2022-09-17T01:38:15.497Z,62.78
2022-09-17T01:41:07.963Z,62.85
2022-09-17T01:44:21.174Z,62.91
2022-09-17T01:46:56.389Z,63.28
2022-09-17T01:49:25.759Z,64.06
2022-09-17T01:51:55.023Z,64.41
2022-09-17T01:54:30.176Z,64.61
2022-09-17T01:57:04.065Z,65.09
2022-09-17T01:59:33.650Z,65.49
2022-09-17T02:02:14.027Z,65.31
2022-09-17T02:05:02.538Z,65.52
2022-09-17T02:07:32.222Z,65.60
2022-09-17T02:10:09.054Z,65.63
2022-09-17T02:12:48.321Z,65.16
2022-09-17T02:15:22.655Z,65.12
2022-09-17T02:18:03.171Z,64.72
2022-09-17T02:20:48.780Z,64.59
2022-09-17T02:23:25.521Z,64.60
2022-09-17T02:26:10.780Z,64.50
2022-09-17T02:29:14.544Z,65.18
2022-09-17T02:31:42.668Z,65.99
2022-09-17T02:34:11.470Z,65.39
2022-09-17T02:36:38.515Z,65.19
2022-09-17T02:39:05.621Z,64.77
2022-09-17T02:41:51.111Z,64.39
2022-09-17T02:44:32.109Z,64.33
2022-09-17T02:47:44.659Z,64.16
2022-09-17T02:50:18.672Z,63.89
2022-09-17T02:53:12.540Z,63.71
2022-09-17T02:56:21.591Z,63.83
2022-09-17T02:59:19.951Z,63.72
2022-09-17T03:02:13.726Z,63.44
2022-09-17T03:04:41.783Z,63.31
2022-09-17T03:07:12.147Z,63.52
2022-09-17T03:09:39.597Z,63.54
2022-09-17T03:12:07.118Z,63.33
2022-09-17T03:14:34.164Z,63.71
2022-09-17T03:17:01.285Z,63.73
2022-09-17T03:19:28.273Z,63.85
2022-09-17T03:21:55.543Z,63.76
2022-09-17T03:24:22.720Z,63.60
2022-09-17T03:26:49.654Z,64.26
2022-09-17T03:29:17.264Z,64.34
2022-09-17T03:31:44.359Z,64.82
2022-09-17T03:34:11.852Z,64.89
2022-09-17T03:36:38.907Z,65.36
2022-09-17T03:39:06.110Z,65.67
2022-09-17T03:41:33.169Z,66.33
2022-09-17T03:44:00.138Z,66.47
2022-09-17T03:46:27.416Z,67.01
2022-09-17T03:48:54.425Z,66.92
2022-09-17T03:51:21.452Z,67.44
2022-09-17T03:53:48.518Z,67.60
2022-09-17T03:56:15.533Z,67.43
2022-09-17T03:58:42.453Z,67.00
2022-09-17T04:01:09.626Z,66.72
2022-09-17T04:03:36.847Z,66.34
2022-09-17T04:06:03.947Z,66.06
2022-09-17T04:08:30.965Z,65.63
2022-09-17T04:10:58.010Z,65.35
2022-09-17T04:13:24.949Z,65.58
2022-09-17T04:15:52.384Z,65.42
2022-09-17T04:18:19.441Z,65.14
2022-09-17T04:20:46.408Z,65.12
2022-09-17T04:23:13.667Z,65.10
2022-09-17T04:25:40.670Z,65.11
2022-09-17T04:28:07.802Z,64.83
2022-09-17T04:30:34.997Z,64.88
2022-09-17T04:33:02.833Z,64.93
2022-09-17T04:35:30.186Z,64.84
2022-09-17T04:37:58.617Z,64.66
2022-09-17T04:40:27.651Z,64.82
2022-09-17T04:42:56.610Z,65.78
2022-09-17T04:45:23.782Z,66.64
2022-09-17T04:47:53.495Z,65.39
2022-09-17T04:50:21.509Z,67.67
2022-09-17T04:52:48.787Z,66.76
2022-09-17T04:55:16.363Z,63.53
2022-09-17T04:57:51.569Z,61.63
2022-09-17T05:00:20.173Z,60.07
2022-09-17T05:02:49.948Z,59.49
2022-09-17T05:05:18.838Z,59.54
2022-09-17T05:07:46.395Z,59.13
2022-09-17T05:10:16.106Z,59.08
2022-09-17T05:12:51.199Z,57.94
2022-09-17T05:15:19.150Z,57.84
2022-09-17T05:17:47.049Z,57.84
2022-09-17T05:20:15.802Z,57.66
2022-09-17T05:22:48.718Z,56.79
2022-09-17T05:25:18.211Z,56.49
2022-09-17T05:27:45.851Z,56.31
2022-09-17T05:30:13.499Z,55.97
2022-09-17T05:32:41.115Z,56.04
2022-09-17T05:35:09.546Z,55.98
2022-09-17T05:37:37.486Z,55.54
2022-09-17T05:40:08.396Z,55.44
2022-09-17T05:42:35.589Z,55.00
2022-09-17T05:45:03.043Z,54.65
2022-09-17T05:47:30.389Z,54.49
2022-09-17T05:49:57.361Z,54.19
2022-09-17T05:52:28.254Z,54.65
2022-09-17T05:54:56.642Z,54.46
2022-09-17T05:57:24.108Z,54.23
2022-09-17T05:59:51.172Z,53.83
2022-09-17T06:02:18.219Z,53.90
2022-09-17T06:04:46.506Z,53.64
2022-09-17T06:07:13.832Z,53.40
2022-09-17T06:09:41.284Z,53.29
2022-09-17T06:12:08.691Z,53.00
2022-09-17T06:14:35.699Z,52.93
2022-09-17T06:17:02.684Z,52.91
2022-09-17T06:19:29.685Z,52.67
2022-09-17T06:21:56.631Z,53.00
2022-09-17T06:24:23.623Z,53.05
2022-09-17T06:26:52.655Z,52.19
2022-09-17T06:29:20.426Z,52.35
2022-09-17T06:31:49.254Z,52.45
2022-09-17T06:34:17.846Z,51.65
2022-09-17T06:36:44.802Z,51.66
2022-09-17T06:39:12.018Z,51.32
2022-09-17T06:41:39.408Z,51.95
2022-09-17T06:44:06.376Z,51.80
2022-09-17T06:46:33.403Z,51.83
2022-09-17T06:49:00.722Z,51.66
2022-09-17T06:51:27.857Z,51.65
2022-09-17T06:53:54.915Z,51.73
2022-09-17T06:56:21.842Z,51.57
2022-09-17T06:58:48.806Z,51.45
2022-09-17T07:01:15.939Z,51.05
2022-09-17T07:03:43.789Z,50.98
2022-09-17T07:06:11.349Z,51.22
2022-09-17T07:08:40.077Z,51.62
2022-09-17T07:11:08.200Z,51.57
2022-09-17T07:13:35.711Z,51.67
2022-09-17T07:16:05.285Z,51.74
2022-09-17T07:18:33.060Z,52.14
2022-09-17T07:21:02.264Z,52.38
2022-09-17T07:23:32.370Z,52.76
2022-09-17T07:26:02.133Z,52.81
2022-09-17T07:28:29.749Z,52.69
2022-09-17T07:30:57.485Z,52.63
2022-09-17T07:33:27.967Z,52.36
2022-09-17T07:36:02.956Z,52.18
2022-09-17T07:38:31.289Z,51.86
2022-09-17T07:40:59.603Z,51.40
2022-09-17T07:43:36.051Z,50.70
2022-09-17T07:46:05.339Z,50.55
2022-09-17T07:48:33.145Z,50.32
2022-09-17T07:51:00.613Z,49.94
2022-09-17T07:53:27.714Z,49.90
2022-09-17T07:55:56.337Z,49.60
2022-09-17T07:58:25.301Z,49.28
2022-09-17T08:00:52.283Z,49.35
2022-09-17T08:03:19.239Z,49.36
2022-09-17T08:05:46.261Z,49.30
2022-09-17T08:08:14.229Z,49.37
2022-09-17T08:10:43.398Z,49.36
2022-09-17T08:13:10.357Z,49.39
2022-09-17T08:15:37.349Z,49.34
2022-09-17T08:18:04.377Z,49.45
2022-09-17T08:20:31.287Z,49.52
2022-09-17T08:23:00.633Z,49.56
2022-09-17T08:25:27.627Z,49.60
2022-09-17T08:27:56.677Z,49.53
2022-09-17T08:30:24.139Z,49.69
2022-09-17T08:32:51.148Z,49.52
2022-09-17T08:35:18.186Z,49.83
2022-09-17T08:37:47.616Z,49.91
2022-09-17T08:40:22.597Z,49.83
2022-09-17T08:43:02.557Z,49.74
2022-09-17T08:45:30.180Z,49.78
2022-09-17T08:48:03.192Z,49.76
2022-09-17T08:50:39.289Z,49.48
2022-09-17T08:53:38.776Z,48.76
2022-09-17T08:56:16.288Z,48.68
2022-09-17T08:58:56.782Z,48.72
2022-09-17T09:01:39.051Z,48.83
2022-09-17T09:04:26.846Z,48.79
2022-09-17T09:07:00.536Z,48.30
2022-09-17T09:09:50.756Z,48.51
2022-09-17T09:12:28.444Z,48.62
2022-09-17T09:15:23.329Z,48.49
2022-09-17T09:17:52.075Z,48.10
2022-09-17T09:20:32.432Z,46.89
2022-09-17T09:23:07.584Z,47.15
2022-09-17T09:25:48.725Z,46.84
2022-09-17T09:28:38.808Z,46.56
2022-09-17T09:31:30.680Z,46.40
2022-09-17T09:33:58.654Z,45.90
2022-09-17T09:36:29.474Z,45.41
2022-09-17T09:39:02.504Z,45.29
2022-09-17T09:41:37.721Z,44.98
2022-09-17T09:44:10.937Z,44.91
2022-09-17T09:47:03.953Z,44.74
2022-09-17T09:50:06.750Z,43.31
2022-09-17T09:52:59.909Z,43.90
2022-09-17T09:55:51.556Z,44.59
2022-09-17T09:58:32.781Z,44.62
2022-09-17T10:00:59.776Z,44.79
2022-09-17T10:03:32.825Z,45.09
2022-09-17T10:06:06.218Z,45.21
2022-09-17T10:08:39.267Z,45.27
2022-09-17T10:11:20.625Z,45.37
2022-09-17T10:13:47.887Z,45.41
2022-09-17T10:16:19.588Z,45.95
2022-09-17T10:18:48.621Z,46.00
2022-09-17T10:21:31.869Z,46.04
2022-09-17T10:24:00.119Z,47.14
2022-09-17T10:26:30.928Z,47.23
2022-09-17T10:29:02.615Z,47.35
2022-09-17T10:31:54.110Z,47.23
2022-09-17T10:34:27.246Z,47.16
2022-09-17T10:36:58.678Z,47.11
2022-09-17T10:39:44.527Z,46.90
2022-09-17T10:42:11.409Z,46.83
2022-09-17T10:44:39.765Z,46.85
2022-09-17T10:47:14.513Z,46.56
2022-09-17T10:49:47.213Z,46.74
2022-09-17T10:52:29.554Z,46.40
2022-09-17T10:55:18.229Z,46.60
2022-09-17T10:58:04.132Z,46.92
2022-09-17T11:00:55.678Z,47.46
2022-09-17T11:03:37.786Z,47.35
2022-09-17T11:06:26.022Z,47.58
2022-09-17T11:09:04.989Z,47.70
2022-09-17T11:12:09.364Z,47.40
2022-09-17T11:15:03.958Z,47.52
2022-09-17T11:17:47.034Z,47.59
2022-09-17T11:20:44.549Z,47.98
2022-09-17T11:23:39.006Z,47.94
2022-09-17T11:26:45.605Z,48.48
2022-09-17T11:29:27.372Z,49.09
2022-09-17T11:32:15.764Z,49.40
2022-09-17T11:34:51.238Z,50.08
2022-09-17T11:37:28.695Z,50.34
2022-09-17T11:40:00.924Z,50.66
2022-09-17T11:42:45.859Z,50.96
2022-09-17T11:45:19.380Z,51.47
2022-09-17T11:47:53.355Z,51.62
2022-09-17T11:50:30.122Z,51.89
2022-09-17T11:53:03.098Z,52.02
2022-09-17T11:55:48.071Z,52.01
2022-09-17T11:58:26.415Z,52.18
2022-09-17T12:01:03.024Z,51.88
2022-09-17T12:03:32.749Z,51.84
2022-09-17T12:06:08.241Z,52.77
2022-09-17T12:09:00.485Z,53.18
2022-09-17T12:11:55.992Z,53.05
2022-09-17T12:14:28.165Z,53.34
2022-09-17T12:17:01.329Z,53.00
2022-09-17T12:19:44.245Z,53.20
2022-09-17T12:22:21.523Z,52.89
2022-09-17T12:24:52.094Z,52.78
2022-09-17T12:27:45.961Z,52.56
2022-09-17T12:30:22.838Z,52.20
2022-09-17T12:33:13.559Z,51.93
2022-09-17T12:36:17.923Z,51.32
2022-09-17T12:39:03.813Z,51.26
2022-09-17T12:41:46.566Z,50.83
2022-09-17T12:44:35.755Z,50.34
2022-09-17T12:47:20.662Z,50.08
2022-09-17T12:50:06.534Z,49.32
2022-09-17T12:53:03.602Z,47.66
2022-09-17T12:56:12.429Z,46.44
2022-09-17T12:59:07.146Z,46.42
2022-09-17T13:01:53.218Z,46.65
2022-09-17T13:04:38.351Z,47.64
2022-09-17T13:07:52.874Z,48.62
2022-09-17T13:10:41.498Z,49.60
2022-09-17T13:13:34.589Z,49.57
2022-09-17T13:16:18.359Z,50.11
2022-09-17T13:19:16.184Z,50.45
2022-09-17T13:21:52.945Z,50.73
2022-09-17T13:24:22.773Z,51.08
2022-09-17T13:26:49.909Z,51.79
2022-09-17T13:29:46.252Z,51.66
2022-09-17T13:32:35.690Z,51.25
2022-09-17T13:35:11.225Z,51.19
2022-09-17T13:37:55.218Z,51.27
2022-09-17T13:40:26.639Z,51.53
2022-09-17T13:43:02.934Z,52.25
2022-09-17T13:45:32.249Z,52.86
2022-09-17T13:48:02.848Z,52.99
2022-09-17T13:50:37.181Z,52.95
2022-09-17T13:53:28.083Z,52.74
2022-09-17T13:56:01.402Z,52.91
2022-09-17T13:58:30.345Z,53.62
2022-09-17T14:01:11.939Z,56.75
2022-09-17T14:03:43.822Z,57.77
2022-09-17T14:06:21.297Z,57.42
2022-09-17T14:08:50.780Z,56.61
2022-09-17T14:11:23.973Z,57.12
2022-09-17T14:13:51.945Z,57.00
2022-09-17T14:16:42.851Z,57.66
2022-09-17T14:19:15.946Z,57.51
2022-09-17T14:21:44.613Z,57.11
2022-09-17T14:24:40.480Z,57.16
2022-09-17T14:27:29.204Z,57.11
2022-09-17T14:30:03.016Z,56.97
2022-09-17T14:32:54.515Z,57.27
2022-09-17T14:35:37.690Z,57.03
2022-09-17T14:38:39.945Z,57.03
2022-09-17T14:41:20.413Z,56.83
2022-09-17T14:44:04.504Z,56.86
2022-09-17T14:46:38.002Z,56.05
2022-09-17T14:49:25.001Z,55.62
2022-09-17T14:51:56.782Z,55.39
2022-09-17T14:54:35.844Z,55.35
2022-09-17T14:57:24.243Z,54.96
2022-09-17T14:59:55.341Z,55.07
2022-09-17T15:02:25.031Z,55.06
2022-09-17T15:04:52.075Z,55.45
2022-09-17T15:07:21.658Z,55.54
2022-09-17T15:09:50.444Z,55.91
2022-09-17T15:12:26.221Z,56.56
2022-09-17T15:14:55.514Z,58.63
2022-09-17T15:17:24.126Z,60.24
2022-09-17T15:19:58.646Z,60.61
2022-09-17T15:22:29.843Z,60.79
2022-09-17T15:25:02.380Z,60.92
2022-09-17T15:27:33.886Z,61.54
2022-09-17T15:30:15.125Z,61.33
2022-09-17T15:32:56.559Z,60.87
2022-09-17T15:35:28.771Z,61.10
2022-09-17T15:40:50.131Z,59.64
2022-09-17T15:43:26.446Z,58.67
2022-09-17T15:45:54.622Z,58.04
2022-09-17T15:48:41.974Z,57.49
2022-09-17T15:51:30.490Z,56.99
2022-09-17T15:54:05.744Z,57.10
2022-09-17T15:56:34.313Z,57.48
2022-09-17T15:59:05.069Z,57.87
2022-09-17T16:01:39.350Z,58.31
2022-09-17T16:04:17.675Z,58.72
2022-09-17T16:07:12.958Z,58.53
2022-09-17T16:09:46.057Z,59.04
2022-09-17T16:12:16.216Z,58.79
2022-09-17T16:14:45.176Z,58.29
2022-09-17T16:17:28.336Z,57.85
2022-09-17T16:19:56.799Z,57.63
2022-09-17T16:22:23.888Z,57.29
2022-09-17T16:24:50.946Z,57.06
2022-09-17T16:27:25.285Z,56.94
2022-09-17T16:29:58.287Z,56.71
2022-09-17T16:32:25.230Z,56.43
2022-09-17T16:34:52.200Z,56.21
2022-09-17T16:37:19.109Z,56.26
2022-09-17T16:39:46.134Z,56.00
2022-09-17T16:42:13.054Z,55.90
2022-09-17T16:44:40.242Z,55.88
2022-09-17T16:47:07.301Z,55.59
2022-09-17T16:49:34.741Z,55.61
2022-09-17T16:52:02.064Z,55.36
2022-09-17T16:54:29.040Z,55.34
2022-09-17T16:56:56.205Z,55.46
2022-09-17T16:59:25.733Z,55.31
2022-09-17T17:01:52.806Z,55.15
2022-09-17T17:04:21.466Z,55.27
2022-09-17T17:06:48.595Z,55.20
2022-09-17T17:09:15.687Z,55.31
2022-09-17T17:11:42.764Z,55.07
2022-09-17T17:14:14.541Z,55.04
2022-09-17T17:16:43.730Z,54.97
2022-09-17T17:19:11.100Z,54.92
2022-09-17T17:21:39.024Z,55.09
2022-09-17T17:24:07.124Z,55.09
2022-09-17T17:26:34.864Z,54.96
2022-09-17T17:29:03.108Z,54.84
2022-09-17T17:31:30.230Z,54.96
2022-09-17T17:33:58.449Z,55.05
2022-09-17T17:36:25.437Z,54.97
2022-09-17T17:38:57.135Z,54.73
2022-09-17T17:41:26.476Z,54.86
2022-09-17T17:43:54.983Z,54.82
2022-09-17T17:46:23.407Z,54.77
2022-09-17T17:48:51.525Z,54.81
2022-09-17T17:51:19.542Z,54.81
2022-09-17T17:53:47.022Z,54.82
2022-09-17T17:56:14.098Z,54.75
2022-09-17T17:58:41.362Z,54.77
2022-09-17T18:01:21.852Z,54.71
2022-09-17T18:03:50.150Z,54.87
2022-09-17T18:06:17.279Z,54.81
2022-09-17T18:08:44.873Z,54.68
2022-09-17T18:11:12.537Z,54.71
2022-09-17T18:13:40.442Z,54.84
2022-09-17T18:16:09.279Z,54.66
2022-09-17T18:18:44.200Z,54.62
2022-09-17T18:21:17.640Z,54.73
2022-09-17T18:23:45.300Z,54.53
2022-09-17T18:26:14.779Z,54.69
2022-09-17T18:28:42.166Z,54.68
2022-09-17T18:31:27.427Z,54.83
2022-09-17T18:33:58.525Z,54.65
2022-09-17T18:36:29.781Z,54.74
2022-09-17T18:39:44.636Z,54.78
2022-09-17T18:41:54.562Z,54.76
2022-09-17T18:44:22.587Z,54.55
2022-09-17T18:46:51.470Z,54.76
2022-09-17T18:49:18.969Z,54.55
2022-09-17T18:51:46.812Z,54.52
2022-09-17T18:54:14.185Z,54.77
2022-09-17T18:56:41.942Z,54.61
2022-09-17T18:59:10.423Z,54.75
2022-09-17T19:01:37.683Z,54.57
2022-09-17T19:04:07.732Z,54.63
2022-09-17T19:06:35.773Z,54.55
2022-09-17T19:09:06.438Z,54.51
2022-09-17T19:11:36.577Z,54.47
2022-09-17T19:14:03.863Z,54.68
2022-09-17T19:16:30.930Z,54.47
2022-09-17T19:18:57.962Z,54.31
2022-09-17T19:21:24.929Z,54.60
2022-09-17T19:23:52.943Z,54.52
2022-09-17T19:26:23.675Z,54.41
2022-09-17T19:28:55.706Z,54.68
2022-09-17T19:31:23.058Z,54.53
2022-09-17T19:33:50.702Z,54.56
2022-09-17T19:36:19.797Z,54.48
2022-09-17T19:38:47.326Z,54.49
2022-09-17T19:41:16.536Z,54.41
2022-09-17T19:43:43.745Z,54.49
2022-09-17T19:46:16.708Z,54.49
2022-09-17T19:48:45.990Z,54.58
2022-09-17T19:51:13.303Z,54.50
2022-09-17T19:53:40.791Z,54.50
2022-09-17T19:56:10.985Z,54.65
2022-09-17T19:58:38.063Z,54.36
2022-09-17T20:01:05.113Z,54.33
2022-09-17T20:03:32.224Z,54.44
2022-09-17T20:06:05.082Z,54.38
2022-09-17T20:08:32.833Z,54.33
2022-09-17T20:11:07.922Z,54.42
2022-09-17T20:13:35.518Z,54.49
2022-09-17T20:16:06.936Z,54.28
2022-09-17T20:18:35.538Z,54.31
2022-09-17T20:21:20.634Z,54.40
2022-09-17T20:23:47.962Z,54.36
2022-09-17T20:26:16.420Z,54.49
2022-09-17T20:28:44.249Z,54.37
2022-09-17T20:31:12.413Z,54.55
2022-09-17T20:33:39.895Z,54.45
2022-09-17T20:36:11.242Z,54.40
2022-09-17T20:39:10.621Z,54.23
2022-09-17T20:41:25.876Z,54.44
2022-09-17T20:43:54.545Z,54.50
2022-09-17T20:46:28.378Z,54.42
2022-09-17T20:48:57.897Z,54.35
2022-09-17T20:51:28.161Z,54.38
2022-09-17T20:53:57.526Z,54.45
2022-09-17T20:56:27.689Z,54.57
2022-09-17T20:59:03.385Z,54.33
2022-09-17T21:01:34.812Z,54.42
2022-09-17T21:04:06.984Z,54.41
2022-09-17T21:06:43.031Z,54.42
2022-09-17T21:09:12.449Z,54.42
2022-09-17T21:11:39.608Z,54.50
2022-09-17T21:14:06.770Z,54.68
2022-09-17T21:16:33.877Z,54.46
2022-09-17T21:19:05.002Z,54.50
2022-09-17T21:21:34.614Z,54.40
2022-09-17T21:24:03.785Z,54.48
2022-09-17T21:26:32.743Z,54.47
2022-09-17T21:28:59.767Z,54.46
2022-09-17T21:31:32.294Z,54.45
2022-09-17T21:34:07.992Z,54.56
2022-09-17T21:36:37.495Z,54.49
2022-09-17T21:39:16.715Z,54.56
2022-09-17T21:41:45.185Z,54.52
2022-09-17T21:44:12.558Z,54.45
2022-09-17T21:46:43.272Z,54.60
2022-09-17T21:49:11.530Z,54.56
2022-09-17T21:51:41.986Z,54.50
2022-09-17T21:54:18.116Z,54.53
2022-09-17T21:57:12.425Z,54.37
2022-09-17T21:59:51.040Z,54.78
2022-09-17T22:02:47.794Z,54.69
2022-09-17T22:05:49.770Z,54.51
2022-09-17T22:08:19.539Z,54.51
2022-09-17T22:10:46.688Z,54.41
2022-09-17T22:13:13.881Z,54.63
2022-09-17T22:15:45.788Z,54.79
2022-09-17T22:18:15.291Z,54.61
2022-09-17T22:20:42.671Z,54.59
2022-09-17T22:23:40.128Z,54.62
2022-09-17T22:26:08.119Z,54.82
2022-09-17T22:28:35.625Z,54.46
2022-09-17T22:31:05.886Z,54.61
2022-09-17T22:33:41.026Z,54.71
2022-09-17T22:36:12.920Z,54.72
2022-09-17T22:38:46.214Z,54.66
2022-09-17T22:41:17.833Z,54.76
2022-09-17T22:43:48.526Z,54.59
2022-09-17T22:46:30.936Z,54.69
2022-09-17T22:48:58.620Z,54.76
2022-09-17T22:51:35.287Z,54.71
2022-09-17T22:54:07.170Z,54.85
2022-09-17T22:56:36.553Z,54.60
2022-09-17T22:59:14.920Z,54.64
2022-09-17T23:01:42.569Z,54.65
2022-09-17T23:04:10.314Z,54.61
2022-09-17T23:06:42.477Z,54.78
2022-09-17T23:09:14.195Z,54.70
2022-09-17T23:11:41.879Z,54.57
2022-09-17T23:14:12.538Z,54.71
2022-09-17T23:16:45.746Z,54.84
2022-09-17T23:19:13.503Z,54.83
2022-09-17T23:21:40.913Z,54.94
2022-09-17T23:24:09.144Z,54.87
2022-09-17T23:26:39.611Z,54.70
2022-09-17T23:29:09.755Z,54.67
2022-09-17T23:31:37.139Z,54.84
2022-09-17T23:34:06.322Z,54.70
2022-09-17T23:36:40.135Z,54.77
2022-09-17T23:39:09.523Z,54.77
2022-09-17T23:41:39.058Z,54.88
2022-09-17T23:44:15.257Z,54.68
2022-09-17T23:46:49.809Z,54.81
2022-09-17T23:49:16.923Z,54.79
2022-09-17T23:51:44.873Z,54.83
2022-09-17T23:54:16.814Z,54.83
2022-09-17T23:56:44.106Z,54.87
2022-09-17T23:59:11.956Z,54.85
